createdAt,value
2018-06-23T00:00:45.478Z,13.50
2018-06-23T00:03:13.661Z,13.50
2018-06-23T00:05:41.831Z,13.50
2018-06-23T00:08:10.360Z,13.50
2018-06-23T00:10:38.561Z,13.50
2018-06-23T00:13:06.730Z,13.50
2018-06-23T00:15:34.900Z,13.50
2018-06-23T00:18:03.119Z,13.50
2018-06-23T00:20:31.303Z,13.50
2018-06-23T00:22:59.488Z,13.50
2018-06-23T00:25:33.020Z,13.50
2018-06-23T00:28:01.221Z,13.40
2018-06-23T00:32:57.336Z,13.40
2018-06-23T00:35:25.495Z,13.40
2018-06-23T00:37:53.663Z,13.30
2018-06-23T00:40:21.863Z,13.30
2018-06-23T00:42:50.034Z,13.20
2018-06-23T00:45:18.200Z,13.20
2018-06-23T00:47:46.389Z,13.10
2018-06-23T00:50:14.550Z,13.10
2018-06-23T00:52:42.754Z,13.10
2018-06-23T00:55:10.986Z,13.10
2018-06-23T00:57:39.176Z,13.00
2018-06-23T01:00:07.394Z,13.00
2018-06-23T01:02:35.604Z,12.90
2018-06-23T01:05:03.876Z,12.90
2018-06-23T01:07:32.071Z,12.80
2018-06-23T01:10:00.308Z,12.80
2018-06-23T01:12:28.497Z,12.70
2018-06-23T01:14:56.660Z,12.70
2018-06-23T01:17:24.953Z,12.60
2018-06-23T01:19:53.150Z,12.60
2018-06-23T01:22:21.346Z,12.70
2018-06-23T01:24:49.524Z,12.70
2018-06-23T01:27:17.687Z,12.70
2018-06-23T01:29:45.942Z,12.80
2018-06-23T01:32:14.120Z,12.80
2018-06-23T01:34:42.294Z,12.80
2018-06-23T01:37:10.459Z,12.80
2018-06-23T01:39:38.655Z,12.80
2018-06-23T01:42:06.826Z,12.80
2018-06-23T01:44:34.995Z,12.80
2018-06-23T01:47:03.197Z,12.80
2018-06-23T01:49:31.365Z,12.80
2018-06-23T01:51:59.528Z,12.80
2018-06-23T01:54:27.714Z,12.80
2018-06-23T01:56:55.904Z,12.70
2018-06-23T01:59:24.081Z,12.70
2018-06-23T02:01:52.277Z,12.80
2018-06-23T02:04:20.449Z,12.80
2018-06-23T02:06:48.621Z,12.80
2018-06-23T02:09:16.824Z,12.80
2018-06-23T02:11:45.016Z,12.80
2018-06-23T02:14:18.375Z,12.70
2018-06-23T02:16:51.797Z,12.70
2018-06-23T02:20:29.185Z,12.80
2018-06-23T02:23:02.778Z,12.90
2018-06-23T02:25:36.185Z,12.90
2018-06-23T02:28:09.781Z,13.00
2018-06-23T02:30:43.311Z,13.00
2018-06-23T02:33:16.925Z,12.90
2018-06-23T02:35:45.116Z,13.00
2018-06-23T02:38:13.283Z,13.00
2018-06-23T02:40:41.470Z,13.10
2018-06-23T02:43:09.631Z,13.10
2018-06-23T02:45:37.800Z,13.00
2018-06-23T02:48:05.984Z,13.00
2018-06-23T02:50:34.160Z,13.00
2018-06-23T02:53:02.350Z,13.00
2018-06-23T02:55:30.539Z,13.00
2018-06-23T02:57:58.737Z,13.00
2018-06-23T03:00:26.919Z,13.00
2018-06-23T03:02:55.094Z,13.10
2018-06-23T03:05:23.285Z,13.10
2018-06-23T03:07:51.475Z,13.10
2018-06-23T03:10:19.651Z,13.10
2018-06-23T03:12:47.849Z,13.10
2018-06-23T03:15:16.025Z,13.10
2018-06-23T03:17:44.205Z,13.10
2018-06-23T03:20:12.380Z,13.00
2018-06-23T03:22:40.552Z,13.10
2018-06-23T03:25:08.741Z,13.00
2018-06-23T03:27:36.918Z,13.00
2018-06-23T03:30:05.135Z,12.90
2018-06-23T03:32:33.304Z,12.90
2018-06-23T03:37:29.616Z,12.80
2018-06-23T03:39:57.795Z,12.70
2018-06-23T03:42:25.997Z,12.70
2018-06-23T03:44:54.152Z,12.70
2018-06-23T03:47:22.346Z,12.60
2018-06-23T03:49:50.523Z,12.70
2018-06-23T03:52:18.691Z,12.70
2018-06-23T03:54:46.872Z,12.70
2018-06-23T03:57:15.056Z,12.70
2018-06-23T03:59:43.264Z,12.70
2018-06-23T04:02:11.427Z,12.70
2018-06-23T04:04:39.611Z,12.70
2018-06-23T04:07:07.794Z,12.70
2018-06-23T04:09:35.937Z,12.70
2018-06-23T04:12:04.312Z,12.80
2018-06-23T04:14:32.474Z,12.90
2018-06-23T04:17:00.651Z,12.90
2018-06-23T04:19:28.826Z,12.90
2018-06-23T04:21:56.985Z,13.00
2018-06-23T04:24:25.152Z,13.00
2018-06-23T04:26:53.336Z,13.00
2018-06-23T04:29:21.567Z,13.00
2018-06-23T04:31:49.670Z,13.00
2018-06-23T04:34:17.851Z,13.00
2018-06-23T04:36:45.997Z,13.00
2018-06-23T04:39:14.173Z,13.10
2018-06-23T04:41:42.471Z,13.10
2018-06-23T04:44:10.624Z,13.10
2018-06-23T04:46:38.976Z,13.10
2018-06-23T04:51:35.213Z,13.20
2018-06-23T04:54:03.385Z,13.20
2018-06-23T04:56:31.571Z,13.20
2018-06-23T05:01:27.768Z,13.20
2018-06-23T05:03:55.964Z,13.30
2018-06-23T05:06:24.126Z,13.40
2018-06-23T05:08:52.463Z,13.40
2018-06-23T05:11:20.612Z,13.40
2018-06-23T05:13:48.780Z,13.40
2018-06-23T05:16:16.940Z,13.40
2018-06-23T05:18:45.385Z,13.30
2018-06-23T05:21:13.574Z,13.30
2018-06-23T05:23:41.741Z,13.30
2018-06-23T05:26:09.934Z,13.40
2018-06-23T05:28:38.124Z,13.40
2018-06-23T05:31:06.298Z,13.50
2018-06-23T05:33:34.470Z,13.60
2018-06-23T05:36:02.630Z,13.60
2018-06-23T05:38:30.807Z,13.70
2018-06-23T05:40:58.998Z,13.70
2018-06-23T05:43:27.160Z,13.60
2018-06-23T05:45:55.324Z,13.70
2018-06-23T05:48:23.493Z,13.70
2018-06-23T05:50:51.703Z,13.70
2018-06-23T05:53:19.872Z,13.80
2018-06-23T05:55:48.047Z,13.80
2018-06-23T05:58:16.217Z,13.80
2018-06-23T06:00:44.421Z,13.70
2018-06-23T06:03:12.598Z,13.70
2018-06-23T06:05:40.750Z,13.70
2018-06-23T06:08:08.926Z,13.70
2018-06-23T06:10:37.094Z,13.70
2018-06-23T06:13:05.565Z,13.60
2018-06-23T06:15:33.723Z,13.60
2018-06-23T06:18:01.918Z,13.60
2018-06-23T06:20:30.132Z,13.60
2018-06-23T06:22:58.293Z,13.60
2018-06-23T06:25:26.489Z,13.70
2018-06-23T06:27:54.672Z,13.60
2018-06-23T06:30:22.929Z,13.60
2018-06-23T06:32:51.120Z,13.50
2018-06-23T06:35:19.303Z,13.40
2018-06-23T06:37:47.516Z,13.40
2018-06-23T06:40:15.661Z,13.40
2018-06-23T06:42:43.849Z,13.40
2018-06-23T06:45:12.022Z,13.40
2018-06-23T06:47:40.246Z,13.50
2018-06-23T06:50:08.405Z,13.50
2018-06-23T06:52:36.589Z,13.50
2018-06-23T06:55:04.759Z,13.60
2018-06-23T06:57:32.938Z,13.70
2018-06-23T07:00:01.092Z,14.00
2018-06-23T07:02:29.259Z,14.30
2018-06-23T07:04:57.433Z,14.40
2018-06-23T07:07:25.607Z,14.60
2018-06-23T07:09:53.776Z,14.90
2018-06-23T07:12:21.968Z,15.30
2018-06-23T07:14:50.161Z,15.70
2018-06-23T07:17:18.339Z,16.10
2018-06-23T07:19:46.543Z,16.30
2018-06-23T07:22:14.738Z,16.50
2018-06-23T07:24:42.921Z,16.70
2018-06-23T07:27:11.152Z,16.80
2018-06-23T07:29:39.328Z,16.60
2018-06-23T07:32:07.516Z,16.40
2018-06-23T07:34:35.815Z,16.40
2018-06-23T07:39:31.894Z,16.10
2018-06-23T07:42:00.110Z,16.00
2018-06-23T07:44:28.306Z,16.00
2018-06-23T07:46:56.484Z,15.90
2018-06-23T07:49:24.677Z,15.90
2018-06-23T07:51:52.879Z,16.00
2018-06-23T07:54:21.067Z,16.10
2018-06-23T07:56:49.240Z,16.30
2018-06-23T07:59:17.464Z,16.30
2018-06-23T08:01:45.750Z,16.40
2018-06-23T08:04:13.962Z,16.40
2018-06-23T08:06:42.153Z,16.60
2018-06-23T08:09:10.630Z,16.50
2018-06-23T08:11:38.923Z,16.40
2018-06-23T08:14:07.078Z,16.40
2018-06-23T08:16:35.461Z,16.90
2018-06-23T08:19:03.672Z,17.00
2018-06-23T08:21:31.929Z,17.30
2018-06-23T08:24:00.173Z,18.80
2018-06-23T08:26:28.490Z,20.10
2018-06-23T08:28:56.582Z,23.30
2018-06-23T08:31:24.792Z,24.20
2018-06-23T08:33:52.964Z,23.50
2018-06-23T08:36:21.136Z,23.80
2018-06-23T08:41:17.473Z,23.00
2018-06-23T08:43:45.777Z,22.50
2018-06-23T08:46:14.258Z,22.30
2018-06-23T08:48:42.929Z,22.50
2018-06-23T08:51:11.160Z,21.60
2018-06-23T08:53:39.343Z,21.10
2018-06-23T08:56:07.653Z,21.50
2018-06-23T08:58:35.864Z,21.80
2018-06-23T09:01:04.035Z,22.10
2018-06-23T09:03:32.241Z,22.80
2018-06-23T09:06:02.163Z,24.10
2018-06-23T09:08:30.357Z,24.30
2018-06-23T09:10:58.606Z,25.20
2018-06-23T09:13:26.793Z,25.30
2018-06-23T09:15:54.974Z,24.50
2018-06-23T09:18:23.145Z,23.70
2018-06-23T09:23:19.272Z,23.60
2018-06-23T09:25:47.494Z,24.90
2018-06-23T09:28:15.667Z,26.00
2018-06-23T09:30:43.888Z,25.60
2018-06-23T09:33:14.437Z,25.10
2018-06-23T09:35:42.633Z,23.90
2018-06-23T09:38:11.603Z,23.40
2018-06-23T09:40:40.376Z,23.70
2018-06-23T09:43:08.573Z,24.00
2018-06-23T09:45:36.744Z,24.90
2018-06-23T09:48:04.900Z,25.50
2018-06-23T09:50:33.074Z,26.00
2018-06-23T09:53:01.303Z,26.40
2018-06-23T09:55:30.099Z,27.60
2018-06-23T09:57:58.492Z,28.20
2018-06-23T10:00:29.194Z,28.80
2018-06-23T10:02:59.148Z,28.60
2018-06-23T10:05:28.213Z,27.70
2018-06-23T10:07:57.168Z,26.70
2018-06-23T10:10:25.565Z,25.80
2018-06-23T10:12:54.251Z,25.10
2018-06-23T10:15:22.501Z,24.50
2018-06-23T10:17:51.217Z,25.10
2018-06-23T10:20:19.400Z,25.30
2018-06-23T10:22:47.612Z,25.20
2018-06-23T10:25:15.796Z,25.40
2018-06-23T10:27:43.973Z,26.00
2018-06-23T10:30:12.173Z,26.30
2018-06-23T10:32:40.379Z,26.30
2018-06-23T10:35:08.556Z,26.10
2018-06-23T10:37:37.072Z,25.40
2018-06-23T10:40:05.352Z,24.70
2018-06-23T10:42:33.462Z,23.90
2018-06-23T10:45:01.694Z,23.30
2018-06-23T10:47:29.853Z,22.90
2018-06-23T10:49:58.021Z,23.00
2018-06-23T10:52:26.227Z,23.80
2018-06-23T10:54:54.764Z,24.40
2018-06-23T10:57:22.981Z,24.40
2018-06-23T11:02:19.143Z,23.80
2018-06-23T11:04:47.422Z,23.30
2018-06-23T11:07:15.581Z,22.70
2018-06-23T11:09:43.761Z,22.20
2018-06-23T11:12:11.956Z,21.90
2018-06-23T11:14:40.168Z,21.80
2018-06-23T11:17:08.353Z,21.60
2018-06-23T11:19:36.530Z,21.20
2018-06-23T11:22:04.735Z,21.00
2018-06-23T11:24:33.354Z,21.00
2018-06-23T11:27:01.473Z,21.20
2018-06-23T11:29:29.742Z,21.30
2018-06-23T11:31:57.928Z,21.40
2018-06-23T11:34:26.117Z,21.60
2018-06-23T11:36:54.325Z,21.70
2018-06-23T11:39:24.243Z,21.60
2018-06-23T11:41:52.511Z,21.60
2018-06-23T11:44:20.865Z,21.60
2018-06-23T11:46:49.045Z,21.70
2018-06-23T11:49:17.224Z,21.60
2018-06-23T11:51:45.412Z,21.50
2018-06-23T11:54:13.576Z,21.40
2018-06-23T11:56:41.757Z,21.40
2018-06-23T11:59:09.960Z,21.30
2018-06-23T12:01:38.151Z,21.20
2018-06-23T12:04:06.356Z,21.20
2018-06-23T12:06:34.565Z,21.30
2018-06-23T12:09:02.961Z,21.60
2018-06-23T12:11:31.166Z,21.90
2018-06-23T12:13:59.473Z,22.20
2018-06-23T12:16:29.369Z,22.20
2018-06-23T12:18:57.539Z,22.40
2018-06-23T12:21:25.710Z,22.40
2018-06-23T12:23:53.913Z,22.30
2018-06-23T12:26:22.104Z,22.10
2018-06-23T12:28:50.295Z,22.10
2018-06-23T12:31:18.469Z,22.00
2018-06-23T12:33:46.656Z,21.60
2018-06-23T12:36:14.844Z,21.40
2018-06-23T12:38:43.020Z,21.30
2018-06-23T12:43:39.085Z,21.30
2018-06-23T12:46:07.259Z,21.40
2018-06-23T12:48:35.425Z,21.60
2018-06-23T12:51:03.591Z,21.60
2018-06-23T12:53:31.757Z,21.50
2018-06-23T12:55:59.916Z,21.30
2018-06-23T12:58:28.102Z,21.30
2018-06-23T13:00:56.289Z,21.20
2018-06-23T13:03:24.475Z,21.10
2018-06-23T13:05:52.659Z,21.10
2018-06-23T13:08:20.837Z,21.00
2018-06-23T13:10:49.001Z,21.00
2018-06-23T13:13:17.182Z,20.90
2018-06-23T13:15:45.333Z,21.20
2018-06-23T13:18:13.502Z,21.50
2018-06-23T13:20:41.935Z,21.70
2018-06-23T13:23:10.508Z,21.60
2018-06-23T13:25:38.684Z,21.50
2018-06-23T13:28:06.905Z,21.20
2018-06-23T13:30:35.031Z,21.10
2018-06-23T13:33:03.220Z,20.80
2018-06-23T13:35:31.433Z,20.60
2018-06-23T13:37:59.581Z,20.60
2018-06-23T13:40:27.773Z,20.70
2018-06-23T13:42:56.017Z,20.90
2018-06-23T13:45:24.169Z,21.30
2018-06-23T13:47:52.345Z,21.40
2018-06-23T13:50:20.513Z,21.60
2018-06-23T13:52:48.693Z,22.00
2018-06-23T13:55:16.878Z,22.00
2018-06-23T13:57:45.070Z,21.90
2018-06-23T14:00:13.262Z,21.70
2018-06-23T14:02:41.510Z,21.40
2018-06-23T14:05:09.702Z,21.20
2018-06-23T14:07:37.877Z,21.00
2018-06-23T14:12:34.025Z,21.50
2018-06-23T14:17:30.151Z,21.60
2018-06-23T14:19:58.348Z,21.40
2018-06-23T14:22:26.508Z,21.30
2018-06-23T14:24:54.665Z,21.00
2018-06-23T14:27:22.865Z,20.90
2018-06-23T14:29:50.990Z,20.60
2018-06-23T14:32:19.390Z,20.50
2018-06-23T14:34:47.300Z,20.60
2018-06-23T14:37:15.432Z,20.70
2018-06-23T14:39:43.694Z,20.70
2018-06-23T14:42:11.843Z,20.90
2018-06-23T14:44:39.988Z,21.10
2018-06-23T14:47:08.124Z,21.10
2018-06-23T14:49:36.309Z,21.20
2018-06-23T14:52:04.450Z,21.40
2018-06-23T14:54:32.625Z,21.50
2018-06-23T14:57:00.791Z,21.60
2018-06-23T14:59:28.925Z,21.60
2018-06-23T15:04:24.934Z,21.50
2018-06-23T15:06:53.120Z,21.40
2018-06-23T15:09:32.679Z,21.30
2018-06-23T15:12:12.157Z,21.40
2018-06-23T15:14:40.688Z,21.20
2018-06-23T15:17:09.676Z,21.10
2018-06-23T15:19:37.920Z,21.00
2018-06-23T15:22:06.273Z,21.00
2018-06-23T15:24:34.421Z,20.90
2018-06-23T15:27:02.596Z,20.90
2018-06-23T15:29:30.754Z,21.00
2018-06-23T15:31:58.943Z,21.00
2018-06-23T15:34:27.127Z,21.00
2018-06-23T15:36:55.285Z,21.20
2018-06-23T15:39:23.429Z,21.30
2018-06-23T15:41:51.617Z,21.40
2018-06-23T15:44:19.774Z,21.40
2018-06-23T15:46:47.920Z,21.40
2018-06-23T15:49:16.091Z,21.40
2018-06-23T15:51:44.262Z,21.40
2018-06-23T15:54:12.433Z,21.30
2018-06-23T15:56:40.608Z,21.40
2018-06-23T15:59:08.870Z,21.50
2018-06-23T16:01:37.030Z,21.60
2018-06-23T16:04:05.305Z,21.70
2018-06-23T16:06:33.451Z,21.60
2018-06-23T16:09:01.579Z,21.50
2018-06-23T16:11:29.722Z,21.40
2018-06-23T16:13:58.613Z,21.30
2018-06-23T16:16:26.776Z,21.10
2018-06-23T16:18:54.911Z,20.90
2018-06-23T16:21:23.055Z,20.60
2018-06-23T16:23:51.178Z,20.50
2018-06-23T16:26:19.329Z,20.50
2018-06-23T16:28:47.468Z,20.40
2018-06-23T16:31:15.608Z,20.40
2018-06-23T16:33:43.887Z,20.40
2018-06-23T16:36:12.039Z,20.30
2018-06-23T16:41:08.069Z,20.40
2018-06-23T16:43:36.205Z,20.50
2018-06-23T16:46:04.373Z,20.60
2018-06-23T16:48:32.668Z,20.60
2018-06-23T16:51:00.828Z,20.60
2018-06-23T16:53:29.009Z,20.60
2018-06-23T16:55:57.187Z,20.50
2018-06-23T16:58:25.340Z,20.50
2018-06-23T17:00:53.461Z,20.40
2018-06-23T17:03:21.617Z,20.50
2018-06-23T17:05:49.795Z,20.60
2018-06-23T17:08:18.000Z,20.50
2018-06-23T17:10:46.161Z,20.40
2018-06-23T17:13:14.348Z,20.40
2018-06-23T17:15:42.503Z,20.20
2018-06-23T17:18:10.740Z,20.10
2018-06-23T17:20:39.199Z,20.10
2018-06-23T17:23:07.557Z,20.10
2018-06-23T17:25:35.952Z,20.20
2018-06-23T17:28:04.370Z,20.20
2018-06-23T17:30:32.557Z,20.30
2018-06-23T17:33:00.721Z,20.20
2018-06-23T17:35:28.914Z,20.20
2018-06-23T17:37:57.182Z,20.10
2018-06-23T17:40:25.409Z,20.10
2018-06-23T17:42:53.606Z,20.10
2018-06-23T17:45:21.972Z,20.00
2018-06-23T17:47:51.314Z,20.00
2018-06-23T17:50:19.559Z,19.90
2018-06-23T17:52:47.740Z,19.80
2018-06-23T17:55:15.949Z,19.70
2018-06-23T17:57:44.308Z,19.70
2018-06-23T18:00:12.272Z,19.60
2018-06-23T18:02:40.568Z,19.60
2018-06-23T18:05:08.721Z,19.50
2018-06-23T18:10:04.899Z,19.40
2018-06-23T18:12:33.160Z,19.40
2018-06-23T18:17:29.408Z,19.30
2018-06-23T18:19:58.483Z,19.20
2018-06-23T18:22:26.676Z,19.10
2018-06-23T18:24:54.893Z,19.00
2018-06-23T18:27:23.127Z,18.90
2018-06-23T18:29:51.308Z,18.80
2018-06-23T18:32:19.548Z,18.70
2018-06-23T18:34:47.761Z,18.60
2018-06-23T18:37:15.969Z,18.50
2018-06-23T18:39:45.112Z,18.50
2018-06-23T18:42:13.251Z,18.50
2018-06-23T18:44:41.425Z,18.50
2018-06-23T18:47:09.588Z,18.50
2018-06-23T18:49:37.807Z,18.50
2018-06-23T18:52:06.077Z,18.50
2018-06-23T18:54:34.241Z,18.50
2018-06-23T18:57:02.409Z,18.50
2018-06-23T18:59:30.581Z,18.50
2018-06-23T19:01:58.848Z,18.50
2018-06-23T19:04:27.151Z,18.40
2018-06-23T19:06:55.321Z,18.30
2018-06-23T19:09:23.737Z,18.10
2018-06-23T19:11:51.652Z,18.10
2018-06-23T19:14:19.852Z,18.00
2018-06-23T19:16:48.132Z,17.90
2018-06-23T19:19:16.364Z,17.70
2018-06-23T19:21:44.561Z,17.60
2018-06-23T19:24:13.128Z,17.60
2018-06-23T19:26:41.528Z,17.50
2018-06-23T19:29:10.364Z,17.40
2018-06-23T19:31:38.583Z,17.40
2018-06-23T19:34:06.720Z,17.30
2018-06-23T19:36:35.048Z,17.20
2018-06-23T19:39:03.336Z,17.20
2018-06-23T19:41:31.537Z,17.10
2018-06-23T19:43:59.817Z,17.00
2018-06-23T19:46:27.955Z,16.90
2018-06-23T19:48:56.156Z,16.90
2018-06-23T19:51:24.313Z,16.90
2018-06-23T19:53:52.546Z,16.80
2018-06-23T19:56:20.661Z,16.70
2018-06-23T19:58:48.893Z,16.70
2018-06-23T20:01:17.041Z,16.60
2018-06-23T20:03:45.565Z,16.60
2018-06-23T20:06:13.745Z,16.60
2018-06-23T20:08:42.475Z,16.50
2018-06-23T20:11:15.024Z,16.50
2018-06-23T20:13:43.446Z,16.50
2018-06-23T20:16:11.654Z,16.40
2018-06-23T20:18:39.857Z,16.30
2018-06-23T20:21:08.046Z,16.30
2018-06-23T20:23:36.232Z,16.20
2018-06-23T20:26:04.438Z,16.00
2018-06-23T20:28:32.617Z,16.10
2018-06-23T20:31:00.781Z,16.00
2018-06-23T20:33:29.207Z,16.00
2018-06-23T20:35:57.883Z,15.90
2018-06-23T20:38:27.722Z,15.90
2018-06-23T20:40:55.908Z,15.90
2018-06-23T20:43:24.095Z,15.80
2018-06-23T20:45:52.275Z,15.70
2018-06-23T20:48:20.494Z,15.70
2018-06-23T20:53:16.664Z,15.70
2018-06-23T20:55:44.871Z,15.60
2018-06-23T20:58:13.042Z,15.50
2018-06-23T21:00:41.197Z,15.40
2018-06-23T21:03:09.417Z,15.40
2018-06-23T21:05:37.578Z,15.40
2018-06-23T21:08:05.729Z,15.40
2018-06-23T21:13:07.837Z,15.30
2018-06-23T21:15:36.374Z,15.20
2018-06-23T21:18:04.658Z,15.10
2018-06-23T21:20:33.249Z,15.10
2018-06-23T21:23:01.845Z,15.10
2018-06-23T21:25:30.087Z,15.10
2018-06-23T21:27:58.295Z,15.10
2018-06-23T21:30:26.437Z,15.00
2018-06-23T21:32:54.948Z,15.00
2018-06-23T21:35:24.190Z,15.00
2018-06-23T21:37:52.727Z,14.90
2018-06-23T21:40:20.897Z,14.90
2018-06-23T21:42:49.087Z,15.00
2018-06-23T21:45:17.262Z,14.90
2018-06-23T21:47:45.442Z,14.80
2018-06-23T21:50:13.637Z,14.70
2018-06-23T21:52:41.826Z,14.60
2018-06-23T21:55:09.984Z,14.60
2018-06-23T21:57:38.180Z,14.60
2018-06-23T22:00:45.890Z,14.50
2018-06-23T22:03:14.979Z,14.50
2018-06-23T22:05:43.350Z,14.50
2018-06-23T22:08:11.514Z,14.50
2018-06-23T22:10:39.702Z,14.40
2018-06-23T22:13:07.915Z,14.30
2018-06-23T22:15:36.121Z,14.30
2018-06-23T22:18:04.450Z,14.20
2018-06-23T22:20:32.622Z,14.20
2018-06-23T22:23:00.845Z,14.20
2018-06-23T22:25:29.042Z,14.20
2018-06-23T22:27:57.204Z,14.20
2018-06-23T22:30:25.393Z,14.10
2018-06-23T22:32:53.566Z,14.10
2018-06-23T22:35:21.719Z,14.10
2018-06-23T22:40:17.905Z,14.00
2018-06-23T22:42:46.102Z,14.00
2018-06-23T22:45:14.285Z,14.00
2018-06-23T22:47:42.462Z,14.00
2018-06-23T22:50:10.970Z,14.00
2018-06-23T22:52:39.352Z,14.10
2018-06-23T22:55:08.297Z,14.10
2018-06-23T22:57:36.462Z,14.10
2018-06-23T23:00:08.716Z,14.10
2018-06-23T23:02:37.457Z,14.10
2018-06-23T23:05:05.941Z,14.10
2018-06-23T23:07:34.144Z,14.10
2018-06-23T23:10:02.382Z,14.10
2018-06-23T23:12:30.568Z,14.00
2018-06-23T23:14:58.774Z,14.00
2018-06-23T23:17:26.955Z,14.10
2018-06-23T23:19:55.155Z,14.10
2018-06-23T23:22:23.380Z,14.10
2018-06-23T23:24:51.561Z,14.00
2018-06-23T23:27:19.749Z,14.00
2018-06-23T23:29:47.950Z,14.00
2018-06-23T23:32:16.106Z,13.90
2018-06-23T23:34:44.305Z,13.90
2018-06-23T23:37:12.486Z,13.80
2018-06-23T23:39:40.684Z,13.80
2018-06-23T23:42:08.914Z,13.80
2018-06-23T23:44:37.067Z,13.80
2018-06-23T23:47:05.286Z,13.80
2018-06-23T23:49:33.441Z,13.80
2018-06-23T23:52:01.677Z,13.80
2018-06-23T23:54:30.850Z,13.70
2018-06-23T23:56:59.033Z,13.70
2018-06-23T23:59:27.271Z,13.70
